sensor_id;sensor_type;location;lat;lon;timestamp;P1;durP1;ratioP1;P2;durP2;ratioP2
80247;SDS011;69560;52.206;21.018;2023-07-31T00:00:56;2.30;;;1.80;;
80247;SDS011;69560;52.206;21.018;2023-07-31T00:03:27;1.90;;;1.70;;
80247;SDS011;69560;52.206;21.018;2023-07-31T00:05:54;3.30;;;1.80;;
80247;SDS011;69560;52.206;21.018;2023-07-31T00:08:20;2.40;;;1.60;;
80247;SDS011;69560;52.206;21.018;2023-07-31T00:10:47;3.10;;;1.80;;
80247;SDS011;69560;52.206;21.018;2023-07-31T00:13:13;2.80;;;1.60;;
80247;SDS011;69560;52.206;21.018;2023-07-31T00:15:40;3.10;;;1.80;;
80247;SDS011;69560;52.206;21.018;2023-07-31T00:18:06;2.80;;;1.80;;
80247;SDS011;69560;52.206;21.018;2023-07-31T00:20:32;1.80;;;1.60;;
80247;SDS011;69560;52.206;21.018;2023-07-31T00:22:59;1.70;;;1.50;;
80247;SDS011;69560;52.206;21.018;2023-07-31T00:25:25;2.00;;;1.60;;
80247;SDS011;69560;52.206;21.018;2023-07-31T00:27:52;3.40;;;1.60;;
80247;SDS011;69560;52.206;21.018;2023-07-31T00:30:18;2.00;;;1.80;;
80247;SDS011;69560;52.206;21.018;2023-07-31T00:32:45;2.20;;;2.00;;
80247;SDS011;69560;52.206;21.018;2023-07-31T00:35:11;3.40;;;1.50;;
80247;SDS011;69560;52.206;21.018;2023-07-31T00:37:37;3.30;;;1.80;;
80247;SDS011;69560;52.206;21.018;2023-07-31T00:40:04;2.30;;;2.00;;
80247;SDS011;69560;52.206;21.018;2023-07-31T00:42:31;2.80;;;2.00;;
80247;SDS011;69560;52.206;21.018;2023-07-31T00:44:57;2.50;;;2.00;;
80247;SDS011;69560;52.206;21.018;2023-07-31T00:47:24;2.40;;;1.90;;
80247;SDS011;69560;52.206;21.018;2023-07-31T00:49:51;3.00;;;2.00;;
80247;SDS011;69560;52.206;21.018;2023-07-31T00:52:18;2.10;;;1.90;;
80247;SDS011;69560;52.206;21.018;2023-07-31T00:54:45;2.60;;;2.20;;
80247;SDS011;69560;52.206;21.018;2023-07-31T00:57:12;2.10;;;1.90;;
80247;SDS011;69560;52.206;21.018;2023-07-31T00:59:38;2.70;;;2.10;;
80247;SDS011;69560;52.206;21.018;2023-07-31T01:02:04;2.80;;;1.80;;
80247;SDS011;69560;52.206;21.018;2023-07-31T01:04:31;4.20;;;2.00;;
80247;SDS011;69560;52.206;21.018;2023-07-31T01:09:37;2.30;;;2.00;;
80247;SDS011;69560;52.206;21.018;2023-07-31T01:12:13;3.20;;;2.30;;
80247;SDS011;69560;52.206;21.018;2023-07-31T01:14:42;2.30;;;2.10;;
80247;SDS011;69560;52.206;21.018;2023-07-31T01:17:17;4.70;;;2.00;;
80247;SDS011;69560;52.206;21.018;2023-07-31T01:19:43;3.40;;;2.10;;
80247;SDS011;69560;52.206;21.018;2023-07-31T01:28:25;4.00;;;2.10;;
80247;SDS011;69560;52.206;21.018;2023-07-31T01:30:58;2.20;;;1.90;;
80247;SDS011;69560;52.206;21.018;2023-07-31T01:33:27;3.70;;;2.10;;
80247;SDS011;69560;52.206;21.018;2023-07-31T01:35:54;5.10;;;2.30;;
80247;SDS011;69560;52.206;21.018;2023-07-31T01:38:23;3.90;;;2.40;;
80247;SDS011;69560;52.206;21.018;2023-07-31T01:40:52;3.60;;;2.20;;
80247;SDS011;69560;52.206;21.018;2023-07-31T01:43:19;3.40;;;2.60;;
80247;SDS011;69560;52.206;21.018;2023-07-31T01:45:46;3.70;;;2.60;;
80247;SDS011;69560;52.206;21.018;2023-07-31T01:48:12;7.20;;;2.30;;
80247;SDS011;69560;52.206;21.018;2023-07-31T01:50:39;2.80;;;2.30;;
80247;SDS011;69560;52.206;21.018;2023-07-31T01:53:05;2.40;;;2.20;;
80247;SDS011;69560;52.206;21.018;2023-07-31T01:55:32;4.20;;;2.20;;
80247;SDS011;69560;52.206;21.018;2023-07-31T01:57:58;2.90;;;2.30;;
80247;SDS011;69560;52.206;21.018;2023-07-31T02:00:25;6.20;;;2.30;;
80247;SDS011;69560;52.206;21.018;2023-07-31T02:02:51;5.20;;;2.10;;
80247;SDS011;69560;52.206;21.018;2023-07-31T02:05:17;3.70;;;2.40;;
80247;SDS011;69560;52.206;21.018;2023-07-31T02:07:44;3.50;;;2.70;;
80247;SDS011;69560;52.206;21.018;2023-07-31T02:10:10;4.00;;;2.40;;
80247;SDS011;69560;52.206;21.018;2023-07-31T02:12:37;3.00;;;2.70;;
80247;SDS011;69560;52.206;21.018;2023-07-31T02:15:04;2.60;;;2.40;;
80247;SDS011;69560;52.206;21.018;2023-07-31T02:17:31;2.60;;;2.40;;
80247;SDS011;69560;52.206;21.018;2023-07-31T02:19:57;3.70;;;2.00;;
80247;SDS011;69560;52.206;21.018;2023-07-31T02:22:23;3.60;;;2.60;;
80247;SDS011;69560;52.206;21.018;2023-07-31T02:24:50;3.80;;;2.90;;
80247;SDS011;69560;52.206;21.018;2023-07-31T02:27:16;2.80;;;2.60;;
80247;SDS011;69560;52.206;21.018;2023-07-31T02:29:43;5.50;;;2.80;;
80247;SDS011;69560;52.206;21.018;2023-07-31T02:32:09;3.70;;;2.90;;
80247;SDS011;69560;52.206;21.018;2023-07-31T02:34:36;3.80;;;3.20;;
80247;SDS011;69560;52.206;21.018;2023-07-31T02:37:02;3.60;;;2.70;;
80247;SDS011;69560;52.206;21.018;2023-07-31T02:39:29;4.80;;;2.90;;
80247;SDS011;69560;52.206;21.018;2023-07-31T02:41:55;2.80;;;2.60;;
80247;SDS011;69560;52.206;21.018;2023-07-31T02:44:21;4.90;;;3.10;;
80247;SDS011;69560;52.206;21.018;2023-07-31T02:46:48;3.70;;;3.10;;
80247;SDS011;69560;52.206;21.018;2023-07-31T02:49:15;4.50;;;2.90;;
80247;SDS011;69560;52.206;21.018;2023-07-31T02:51:42;4.30;;;3.10;;
80247;SDS011;69560;52.206;21.018;2023-07-31T02:54:08;3.50;;;2.80;;
80247;SDS011;69560;52.206;21.018;2023-07-31T02:56:35;3.20;;;2.90;;
80247;SDS011;69560;52.206;21.018;2023-07-31T02:59:01;4.10;;;2.80;;
80247;SDS011;69560;52.206;21.018;2023-07-31T03:01:27;5.80;;;2.80;;
80247;SDS011;69560;52.206;21.018;2023-07-31T03:03:54;3.40;;;3.10;;
80247;SDS011;69560;52.206;21.018;2023-07-31T03:06:20;4.60;;;3.50;;
80247;SDS011;69560;52.206;21.018;2023-07-31T03:08:47;3.10;;;2.80;;
80247;SDS011;69560;52.206;21.018;2023-07-31T03:11:13;3.70;;;3.30;;
80247;SDS011;69560;52.206;21.018;2023-07-31T03:13:40;5.80;;;3.10;;
80247;SDS011;69560;52.206;21.018;2023-07-31T03:16:06;3.80;;;3.10;;
80247;SDS011;69560;52.206;21.018;2023-07-31T03:18:32;2.90;;;2.50;;
80247;SDS011;69560;52.206;21.018;2023-07-31T03:20:59;3.10;;;2.80;;
80247;SDS011;69560;52.206;21.018;2023-07-31T03:23:25;3.80;;;3.00;;
80247;SDS011;69560;52.206;21.018;2023-07-31T03:25:59;6.00;;;3.10;;
80247;SDS011;69560;52.206;21.018;2023-07-31T03:28:27;3.80;;;3.00;;
80247;SDS011;69560;52.206;21.018;2023-07-31T03:30:53;3.50;;;3.20;;
80247;SDS011;69560;52.206;21.018;2023-07-31T03:33:20;6.00;;;3.40;;
80247;SDS011;69560;52.206;21.018;2023-07-31T03:35:46;3.70;;;2.70;;
80247;SDS011;69560;52.206;21.018;2023-07-31T03:38:13;4.00;;;3.30;;
80247;SDS011;69560;52.206;21.018;2023-07-31T03:40:39;4.60;;;3.40;;
80247;SDS011;69560;52.206;21.018;2023-07-31T03:43:06;3.90;;;3.10;;
80247;SDS011;69560;52.206;21.018;2023-07-31T03:45:32;5.70;;;3.10;;
80247;SDS011;69560;52.206;21.018;2023-07-31T03:47:59;6.00;;;3.00;;
80247;SDS011;69560;52.206;21.018;2023-07-31T03:50:25;4.90;;;3.30;;
80247;SDS011;69560;52.206;21.018;2023-07-31T03:52:52;5.60;;;3.70;;
80247;SDS011;69560;52.206;21.018;2023-07-31T03:55:18;6.90;;;3.20;;
80247;SDS011;69560;52.206;21.018;2023-07-31T03:57:45;3.60;;;3.30;;
80247;SDS011;69560;52.206;21.018;2023-07-31T04:00:11;3.40;;;3.10;;
80247;SDS011;69560;52.206;21.018;2023-07-31T04:02:38;5.50;;;3.10;;
80247;SDS011;69560;52.206;21.018;2023-07-31T04:05:05;3.60;;;2.90;;
80247;SDS011;69560;52.206;21.018;2023-07-31T04:07:32;4.60;;;3.00;;
80247;SDS011;69560;52.206;21.018;2023-07-31T04:09:59;5.30;;;3.50;;
80247;SDS011;69560;52.206;21.018;2023-07-31T04:12:26;3.40;;;3.00;;
80247;SDS011;69560;52.206;21.018;2023-07-31T04:14:52;4.20;;;3.20;;
80247;SDS011;69560;52.206;21.018;2023-07-31T04:17:19;3.80;;;3.00;;
80247;SDS011;69560;52.206;21.018;2023-07-31T04:19:45;4.40;;;3.10;;
80247;SDS011;69560;52.206;21.018;2023-07-31T04:22:12;3.40;;;2.90;;
80247;SDS011;69560;52.206;21.018;2023-07-31T04:24:38;4.60;;;2.80;;
80247;SDS011;69560;52.206;21.018;2023-07-31T04:27:05;5.60;;;2.80;;
80247;SDS011;69560;52.206;21.018;2023-07-31T04:29:31;4.30;;;3.10;;
80247;SDS011;69560;52.206;21.018;2023-07-31T04:31:57;7.20;;;3.70;;
80247;SDS011;69560;52.206;21.018;2023-07-31T04:34:24;4.20;;;3.00;;
80247;SDS011;69560;52.206;21.018;2023-07-31T04:36:50;3.70;;;2.80;;
80247;SDS011;69560;52.206;21.018;2023-07-31T04:39:17;3.40;;;2.80;;
80247;SDS011;69560;52.206;21.018;2023-07-31T04:41:43;4.90;;;2.90;;
80247;SDS011;69560;52.206;21.018;2023-07-31T04:44:09;8.00;;;3.20;;
80247;SDS011;69560;52.206;21.018;2023-07-31T04:46:37;5.80;;;2.90;;
80247;SDS011;69560;52.206;21.018;2023-07-31T04:49:03;4.80;;;3.20;;
80247;SDS011;69560;52.206;21.018;2023-07-31T04:51:30;7.30;;;3.40;;
80247;SDS011;69560;52.206;21.018;2023-07-31T04:53:56;5.40;;;3.20;;
80247;SDS011;69560;52.206;21.018;2023-07-31T04:56:23;7.40;;;3.30;;
80247;SDS011;69560;52.206;21.018;2023-07-31T04:58:49;5.50;;;3.40;;
80247;SDS011;69560;52.206;21.018;2023-07-31T05:01:15;5.00;;;3.30;;
80247;SDS011;69560;52.206;21.018;2023-07-31T05:03:42;5.20;;;3.40;;
80247;SDS011;69560;52.206;21.018;2023-07-31T05:06:08;9.10;;;3.20;;
80247;SDS011;69560;52.206;21.018;2023-07-31T05:08:35;4.40;;;3.10;;
80247;SDS011;69560;52.206;21.018;2023-07-31T05:11:01;4.90;;;3.20;;
80247;SDS011;69560;52.206;21.018;2023-07-31T05:13:28;4.00;;;3.10;;
80247;SDS011;69560;52.206;21.018;2023-07-31T05:15:55;6.10;;;3.40;;
80247;SDS011;69560;52.206;21.018;2023-07-31T05:18:21;6.70;;;3.00;;
80247;SDS011;69560;52.206;21.018;2023-07-31T05:20:48;4.50;;;3.00;;
80247;SDS011;69560;52.206;21.018;2023-07-31T05:23:14;3.90;;;3.20;;
80247;SDS011;69560;52.206;21.018;2023-07-31T05:25:41;10.30;;;3.30;;
80247;SDS011;69560;52.206;21.018;2023-07-31T05:28:07;6.20;;;2.90;;
80247;SDS011;69560;52.206;21.018;2023-07-31T05:30:34;13.00;;;3.70;;
80247;SDS011;69560;52.206;21.018;2023-07-31T05:33:00;8.90;;;3.30;;
80247;SDS011;69560;52.206;21.018;2023-07-31T05:35:27;6.20;;;3.50;;
80247;SDS011;69560;52.206;21.018;2023-07-31T05:37:53;6.60;;;3.20;;
80247;SDS011;69560;52.206;21.018;2023-07-31T05:40:20;4.70;;;3.20;;
80247;SDS011;69560;52.206;21.018;2023-07-31T05:42:46;7.20;;;3.30;;
80247;SDS011;69560;52.206;21.018;2023-07-31T05:45:13;3.60;;;2.90;;
80247;SDS011;69560;52.206;21.018;2023-07-31T05:47:39;5.00;;;3.30;;
80247;SDS011;69560;52.206;21.018;2023-07-31T05:50:07;7.10;;;3.00;;
80247;SDS011;69560;52.206;21.018;2023-07-31T05:52:34;4.80;;;3.10;;
80247;SDS011;69560;52.206;21.018;2023-07-31T05:55:00;6.50;;;2.90;;
80247;SDS011;69560;52.206;21.018;2023-07-31T05:57:27;5.80;;;3.10;;
80247;SDS011;69560;52.206;21.018;2023-07-31T05:59:54;4.10;;;2.70;;
80247;SDS011;69560;52.206;21.018;2023-07-31T06:02:20;2.50;;;2.30;;
80247;SDS011;69560;52.206;21.018;2023-07-31T06:04:46;4.80;;;2.90;;
80247;SDS011;69560;52.206;21.018;2023-07-31T06:07:13;4.70;;;3.40;;
80247;SDS011;69560;52.206;21.018;2023-07-31T06:09:39;6.60;;;2.90;;
80247;SDS011;69560;52.206;21.018;2023-07-31T06:12:06;6.50;;;2.90;;
80247;SDS011;69560;52.206;21.018;2023-07-31T06:14:33;4.30;;;2.90;;
80247;SDS011;69560;52.206;21.018;2023-07-31T06:16:59;7.20;;;3.00;;
80247;SDS011;69560;52.206;21.018;2023-07-31T06:19:26;6.40;;;2.70;;
80247;SDS011;69560;52.206;21.018;2023-07-31T06:21:52;4.10;;;2.60;;
80247;SDS011;69560;52.206;21.018;2023-07-31T06:24:18;5.00;;;2.60;;
80247;SDS011;69560;52.206;21.018;2023-07-31T06:26:47;4.50;;;2.80;;
80247;SDS011;69560;52.206;21.018;2023-07-31T06:29:13;5.60;;;2.80;;
80247;SDS011;69560;52.206;21.018;2023-07-31T06:31:40;5.80;;;3.00;;
80247;SDS011;69560;52.206;21.018;2023-07-31T06:34:07;4.60;;;2.90;;
80247;SDS011;69560;52.206;21.018;2023-07-31T06:36:33;5.80;;;3.10;;
80247;SDS011;69560;52.206;21.018;2023-07-31T06:39:00;4.10;;;3.10;;
80247;SDS011;69560;52.206;21.018;2023-07-31T06:41:26;4.40;;;2.80;;
80247;SDS011;69560;52.206;21.018;2023-07-31T06:43:53;3.80;;;2.90;;
80247;SDS011;69560;52.206;21.018;2023-07-31T06:46:19;5.20;;;3.00;;
80247;SDS011;69560;52.206;21.018;2023-07-31T06:48:46;4.20;;;2.90;;
80247;SDS011;69560;52.206;21.018;2023-07-31T06:51:12;3.40;;;2.80;;
80247;SDS011;69560;52.206;21.018;2023-07-31T06:53:38;4.40;;;3.00;;
80247;SDS011;69560;52.206;21.018;2023-07-31T06:56:05;3.60;;;3.00;;
80247;SDS011;69560;52.206;21.018;2023-07-31T06:58:31;4.30;;;3.20;;
80247;SDS011;69560;52.206;21.018;2023-07-31T07:00:58;7.10;;;3.10;;
80247;SDS011;69560;52.206;21.018;2023-07-31T07:03:24;4.50;;;3.10;;
80247;SDS011;69560;52.206;21.018;2023-07-31T07:05:51;5.20;;;3.60;;
80247;SDS011;69560;52.206;21.018;2023-07-31T07:08:17;6.40;;;3.50;;
80247;SDS011;69560;52.206;21.018;2023-07-31T07:10:44;3.80;;;2.90;;
80247;SDS011;69560;52.206;21.018;2023-07-31T07:13:10;4.90;;;2.80;;
80247;SDS011;69560;52.206;21.018;2023-07-31T07:15:39;6.80;;;3.40;;
80247;SDS011;69560;52.206;21.018;2023-07-31T07:18:05;4.90;;;2.90;;
80247;SDS011;69560;52.206;21.018;2023-07-31T07:20:32;5.90;;;3.70;;
80247;SDS011;69560;52.206;21.018;2023-07-31T07:22:59;6.40;;;3.10;;
80247;SDS011;69560;52.206;21.018;2023-07-31T07:25:25;6.80;;;3.50;;
80247;SDS011;69560;52.206;21.018;2023-07-31T07:27:52;7.70;;;3.40;;
80247;SDS011;69560;52.206;21.018;2023-07-31T07:30:18;5.40;;;3.50;;
80247;SDS011;69560;52.206;21.018;2023-07-31T07:32:46;6.40;;;3.40;;
80247;SDS011;69560;52.206;21.018;2023-07-31T07:35:12;4.00;;;3.20;;
80247;SDS011;69560;52.206;21.018;2023-07-31T07:37:39;4.50;;;2.70;;
80247;SDS011;69560;52.206;21.018;2023-07-31T07:40:05;5.80;;;3.20;;
80247;SDS011;69560;52.206;21.018;2023-07-31T07:42:32;4.70;;;3.30;;
80247;SDS011;69560;52.206;21.018;2023-07-31T07:44:59;6.30;;;3.20;;
80247;SDS011;69560;52.206;21.018;2023-07-31T07:47:25;3.70;;;2.90;;
80247;SDS011;69560;52.206;21.018;2023-07-31T07:49:52;5.70;;;3.00;;
80247;SDS011;69560;52.206;21.018;2023-07-31T07:52:18;5.50;;;2.90;;
80247;SDS011;69560;52.206;21.018;2023-07-31T07:54:45;6.00;;;2.90;;
80247;SDS011;69560;52.206;21.018;2023-07-31T07:57:11;7.90;;;4.00;;
80247;SDS011;69560;52.206;21.018;2023-07-31T07:59:38;8.20;;;3.20;;
80247;SDS011;69560;52.206;21.018;2023-07-31T08:02:05;8.60;;;3.50;;
80247;SDS011;69560;52.206;21.018;2023-07-31T08:04:31;6.80;;;3.40;;
80247;SDS011;69560;52.206;21.018;2023-07-31T08:06:58;5.40;;;3.40;;
80247;SDS011;69560;52.206;21.018;2023-07-31T08:09:24;3.50;;;2.80;;
80247;SDS011;69560;52.206;21.018;2023-07-31T08:11:51;8.20;;;2.80;;
80247;SDS011;69560;52.206;21.018;2023-07-31T08:14:17;7.00;;;3.10;;
80247;SDS011;69560;52.206;21.018;2023-07-31T08:16:44;8.50;;;3.20;;
80247;SDS011;69560;52.206;21.018;2023-07-31T08:19:10;4.00;;;3.00;;
80247;SDS011;69560;52.206;21.018;2023-07-31T08:21:37;7.60;;;3.00;;
80247;SDS011;69560;52.206;21.018;2023-07-31T08:24:03;4.20;;;3.00;;
80247;SDS011;69560;52.206;21.018;2023-07-31T08:26:30;4.70;;;2.70;;
80247;SDS011;69560;52.206;21.018;2023-07-31T08:28:56;4.60;;;2.80;;
80247;SDS011;69560;52.206;21.018;2023-07-31T08:31:23;7.30;;;2.90;;
80247;SDS011;69560;52.206;21.018;2023-07-31T08:33:50;5.40;;;2.70;;
80247;SDS011;69560;52.206;21.018;2023-07-31T08:36:16;2.70;;;2.20;;
80247;SDS011;69560;52.206;21.018;2023-07-31T08:38:45;4.30;;;2.30;;
80247;SDS011;69560;52.206;21.018;2023-07-31T08:41:13;3.50;;;2.70;;
80247;SDS011;69560;52.206;21.018;2023-07-31T08:43:40;5.50;;;2.80;;
80247;SDS011;69560;52.206;21.018;2023-07-31T08:46:07;6.50;;;2.50;;
80247;SDS011;69560;52.206;21.018;2023-07-31T08:48:34;5.50;;;3.20;;
80247;SDS011;69560;52.206;21.018;2023-07-31T08:51:03;5.90;;;2.80;;
80247;SDS011;69560;52.206;21.018;2023-07-31T08:53:30;5.90;;;2.90;;
80247;SDS011;69560;52.206;21.018;2023-07-31T08:55:56;4.80;;;2.70;;
80247;SDS011;69560;52.206;21.018;2023-07-31T08:58:25;6.50;;;2.60;;
80247;SDS011;69560;52.206;21.018;2023-07-31T09:00:56;3.80;;;2.50;;
80247;SDS011;69560;52.206;21.018;2023-07-31T09:03:24;4.10;;;2.60;;
80247;SDS011;69560;52.206;21.018;2023-07-31T09:05:52;3.60;;;2.40;;
80247;SDS011;69560;52.206;21.018;2023-07-31T09:08:21;3.20;;;2.30;;
80247;SDS011;69560;52.206;21.018;2023-07-31T09:10:48;5.20;;;2.40;;
80247;SDS011;69560;52.206;21.018;2023-07-31T09:13:18;5.30;;;3.20;;
80247;SDS011;69560;52.206;21.018;2023-07-31T09:15:45;6.30;;;2.50;;
80247;SDS011;69560;52.206;21.018;2023-07-31T09:18:12;7.30;;;2.10;;
80247;SDS011;69560;52.206;21.018;2023-07-31T09:20:40;5.30;;;2.40;;
80247;SDS011;69560;52.206;21.018;2023-07-31T09:23:07;5.90;;;2.50;;
80247;SDS011;69560;52.206;21.018;2023-07-31T09:25:36;4.20;;;2.40;;
80247;SDS011;69560;52.206;21.018;2023-07-31T09:28:04;4.50;;;2.20;;
80247;SDS011;69560;52.206;21.018;2023-07-31T09:30:46;4.20;;;2.60;;
80247;SDS011;69560;52.206;21.018;2023-07-31T09:33:14;5.00;;;2.50;;
80247;SDS011;69560;52.206;21.018;2023-07-31T09:35:41;6.00;;;2.20;;
80247;SDS011;69560;52.206;21.018;2023-07-31T09:38:14;5.50;;;2.20;;
80247;SDS011;69560;52.206;21.018;2023-07-31T09:40:45;3.70;;;2.40;;
80247;SDS011;69560;52.206;21.018;2023-07-31T09:43:17;2.20;;;2.00;;
80247;SDS011;69560;52.206;21.018;2023-07-31T09:45:45;6.10;;;2.20;;
80247;SDS011;69560;52.206;21.018;2023-07-31T09:48:13;2.80;;;1.90;;
80247;SDS011;69560;52.206;21.018;2023-07-31T09:50:47;3.30;;;2.10;;
80247;SDS011;69560;52.206;21.018;2023-07-31T09:53:18;3.50;;;1.90;;
80247;SDS011;69560;52.206;21.018;2023-07-31T09:55:46;5.80;;;1.90;;
80247;SDS011;69560;52.206;21.018;2023-07-31T09:58:13;8.10;;;1.80;;
80247;SDS011;69560;52.206;21.018;2023-07-31T10:00:40;4.80;;;1.80;;
80247;SDS011;69560;52.206;21.018;2023-07-31T10:03:08;3.80;;;1.90;;
80247;SDS011;69560;52.206;21.018;2023-07-31T10:05:39;2.30;;;1.50;;
80247;SDS011;69560;52.206;21.018;2023-07-31T10:08:09;3.30;;;1.80;;
80247;SDS011;69560;52.206;21.018;2023-07-31T10:10:40;3.30;;;1.60;;
80247;SDS011;69560;52.206;21.018;2023-07-31T10:13:09;4.40;;;2.00;;
80247;SDS011;69560;52.206;21.018;2023-07-31T10:15:40;3.70;;;1.60;;
80247;SDS011;69560;52.206;21.018;2023-07-31T10:18:10;2.20;;;1.40;;
80247;SDS011;69560;52.206;21.018;2023-07-31T10:20:38;2.60;;;1.60;;
80247;SDS011;69560;52.206;21.018;2023-07-31T10:23:20;2.90;;;1.60;;
80247;SDS011;69560;52.206;21.018;2023-07-31T10:25:48;2.20;;;1.40;;
80247;SDS011;69560;52.206;21.018;2023-07-31T10:28:15;3.10;;;1.30;;
80247;SDS011;69560;52.206;21.018;2023-07-31T10:30:42;3.10;;;1.50;;
80247;SDS011;69560;52.206;21.018;2023-07-31T10:33:09;2.90;;;1.50;;
80247;SDS011;69560;52.206;21.018;2023-07-31T10:35:36;4.90;;;1.70;;
80247;SDS011;69560;52.206;21.018;2023-07-31T10:38:09;3.40;;;1.80;;
80247;SDS011;69560;52.206;21.018;2023-07-31T10:40:38;4.00;;;1.60;;
80247;SDS011;69560;52.206;21.018;2023-07-31T10:43:05;3.70;;;1.30;;
80247;SDS011;69560;52.206;21.018;2023-07-31T10:45:35;1.80;;;1.30;;
80247;SDS011;69560;52.206;21.018;2023-07-31T10:48:04;2.70;;;1.30;;
80247;SDS011;69560;52.206;21.018;2023-07-31T10:50:48;2.60;;;1.40;;
80247;SDS011;69560;52.206;21.018;2023-07-31T10:53:26;2.70;;;1.40;;
80247;SDS011;69560;52.206;21.018;2023-07-31T10:55:59;3.90;;;1.40;;
80247;SDS011;69560;52.206;21.018;2023-07-31T10:58:27;4.20;;;1.60;;
80247;SDS011;69560;52.206;21.018;2023-07-31T11:00:57;1.50;;;0.90;;
80247;SDS011;69560;52.206;21.018;2023-07-31T11:03:26;2.90;;;1.10;;
80247;SDS011;69560;52.206;21.018;2023-07-31T11:06:12;3.90;;;1.10;;
80247;SDS011;69560;52.206;21.018;2023-07-31T11:08:43;2.60;;;1.30;;
80247;SDS011;69560;52.206;21.018;2023-07-31T11:11:15;2.60;;;1.10;;
80247;SDS011;69560;52.206;21.018;2023-07-31T11:13:52;3.00;;;1.40;;
80247;SDS011;69560;52.206;21.018;2023-07-31T11:16:21;4.10;;;1.20;;
80247;SDS011;69560;52.206;21.018;2023-07-31T11:18:48;3.50;;;1.20;;
80247;SDS011;69560;52.206;21.018;2023-07-31T11:21:18;4.70;;;2.70;;
80247;SDS011;69560;52.206;21.018;2023-07-31T11:23:47;3.50;;;1.20;;
80247;SDS011;69560;52.206;21.018;2023-07-31T11:26:17;3.50;;;1.30;;
80247;SDS011;69560;52.206;21.018;2023-07-31T11:28:47;2.60;;;0.90;;
80247;SDS011;69560;52.206;21.018;2023-07-31T11:31:15;2.30;;;1.20;;
80247;SDS011;69560;52.206;21.018;2023-07-31T11:33:42;2.40;;;1.10;;
80247;SDS011;69560;52.206;21.018;2023-07-31T11:36:19;2.30;;;1.20;;
80247;SDS011;69560;52.206;21.018;2023-07-31T11:38:47;8.40;;;1.20;;
80247;SDS011;69560;52.206;21.018;2023-07-31T11:41:15;3.60;;;1.20;;
80247;SDS011;69560;52.206;21.018;2023-07-31T11:43:47;3.50;;;1.60;;
80247;SDS011;69560;52.206;21.018;2023-07-31T11:46:14;3.20;;;1.30;;
80247;SDS011;69560;52.206;21.018;2023-07-31T11:48:41;6.00;;;1.30;;
80247;SDS011;69560;52.206;21.018;2023-07-31T11:51:08;2.80;;;1.40;;
80247;SDS011;69560;52.206;21.018;2023-07-31T11:53:41;3.00;;;1.20;;
80247;SDS011;69560;52.206;21.018;2023-07-31T11:56:12;2.80;;;1.30;;
80247;SDS011;69560;52.206;21.018;2023-07-31T11:58:40;1.90;;;1.10;;
80247;SDS011;69560;52.206;21.018;2023-07-31T12:01:11;4.80;;;1.50;;
80247;SDS011;69560;52.206;21.018;2023-07-31T12:03:41;6.60;;;1.40;;
80247;SDS011;69560;52.206;21.018;2023-07-31T12:06:10;3.70;;;1.20;;
80247;SDS011;69560;52.206;21.018;2023-07-31T12:08:37;3.20;;;1.30;;
80247;SDS011;69560;52.206;21.018;2023-07-31T12:11:05;3.90;;;1.50;;
80247;SDS011;69560;52.206;21.018;2023-07-31T12:13:32;2.00;;;1.20;;
80247;SDS011;69560;52.206;21.018;2023-07-31T12:16:00;3.30;;;1.30;;
80247;SDS011;69560;52.206;21.018;2023-07-31T12:18:30;2.80;;;1.60;;
80247;SDS011;69560;52.206;21.018;2023-07-31T12:21:01;2.90;;;1.40;;
80247;SDS011;69560;52.206;21.018;2023-07-31T12:23:32;3.60;;;1.70;;
80247;SDS011;69560;52.206;21.018;2023-07-31T12:26:02;3.40;;;1.80;;
80247;SDS011;69560;52.206;21.018;2023-07-31T12:28:30;2.50;;;1.60;;
80247;SDS011;69560;52.206;21.018;2023-07-31T12:30:57;3.90;;;1.70;;
80247;SDS011;69560;52.206;21.018;2023-07-31T12:33:33;3.10;;;1.60;;
80247;SDS011;69560;52.206;21.018;2023-07-31T12:36:02;5.10;;;2.00;;
80247;SDS011;69560;52.206;21.018;2023-07-31T12:38:30;3.10;;;1.70;;
80247;SDS011;69560;52.206;21.018;2023-07-31T12:40:57;2.50;;;1.70;;
80247;SDS011;69560;52.206;21.018;2023-07-31T12:43:23;6.00;;;2.40;;
80247;SDS011;69560;52.206;21.018;2023-07-31T12:45:50;4.30;;;1.90;;
80247;SDS011;69560;52.206;21.018;2023-07-31T12:48:17;4.40;;;1.80;;
80247;SDS011;69560;52.206;21.018;2023-07-31T12:50:43;2.40;;;1.50;;
80247;SDS011;69560;52.206;21.018;2023-07-31T12:53:10;3.30;;;1.30;;
80247;SDS011;69560;52.206;21.018;2023-07-31T12:55:36;5.10;;;2.00;;
80247;SDS011;69560;52.206;21.018;2023-07-31T12:58:03;3.30;;;1.90;;
80247;SDS011;69560;52.206;21.018;2023-07-31T13:00:30;3.40;;;1.70;;
80247;SDS011;69560;52.206;21.018;2023-07-31T13:02:56;4.30;;;2.00;;
80247;SDS011;69560;52.206;21.018;2023-07-31T13:05:22;3.00;;;1.50;;
80247;SDS011;69560;52.206;21.018;2023-07-31T13:07:49;2.60;;;1.50;;
80247;SDS011;69560;52.206;21.018;2023-07-31T13:10:15;5.90;;;1.50;;
80247;SDS011;69560;52.206;21.018;2023-07-31T13:12:42;5.60;;;1.60;;
80247;SDS011;69560;52.206;21.018;2023-07-31T13:15:08;2.80;;;1.50;;
80247;SDS011;69560;52.206;21.018;2023-07-31T13:17:35;3.10;;;1.40;;
80247;SDS011;69560;52.206;21.018;2023-07-31T13:20:02;3.70;;;1.40;;
80247;SDS011;69560;52.206;21.018;2023-07-31T13:22:29;2.60;;;1.30;;
80247;SDS011;69560;52.206;21.018;2023-07-31T13:24:56;3.90;;;1.40;;
80247;SDS011;69560;52.206;21.018;2023-07-31T13:27:22;7.90;;;1.70;;
80247;SDS011;69560;52.206;21.018;2023-07-31T13:29:50;4.90;;;1.60;;
80247;SDS011;69560;52.206;21.018;2023-07-31T13:32:18;5.10;;;1.80;;
80247;SDS011;69560;52.206;21.018;2023-07-31T13:34:46;3.90;;;1.50;;
80247;SDS011;69560;52.206;21.018;2023-07-31T13:37:13;3.90;;;1.30;;
80247;SDS011;69560;52.206;21.018;2023-07-31T13:39:40;2.60;;;1.40;;
80247;SDS011;69560;52.206;21.018;2023-07-31T13:42:08;3.80;;;1.40;;
80247;SDS011;69560;52.206;21.018;2023-07-31T13:44:35;4.30;;;1.30;;
80247;SDS011;69560;52.206;21.018;2023-07-31T13:47:01;4.80;;;2.00;;
80247;SDS011;69560;52.206;21.018;2023-07-31T13:49:28;5.40;;;2.80;;
80247;SDS011;69560;52.206;21.018;2023-07-31T13:51:56;4.40;;;2.50;;
80247;SDS011;69560;52.206;21.018;2023-07-31T13:54:23;3.60;;;2.20;;
80247;SDS011;69560;52.206;21.018;2023-07-31T13:56:52;3.20;;;1.80;;
80247;SDS011;69560;52.206;21.018;2023-07-31T13:59:19;4.60;;;1.80;;
80247;SDS011;69560;52.206;21.018;2023-07-31T14:01:46;5.50;;;2.30;;
80247;SDS011;69560;52.206;21.018;2023-07-31T14:04:13;2.90;;;1.70;;
80247;SDS011;69560;52.206;21.018;2023-07-31T14:06:40;3.30;;;1.90;;
80247;SDS011;69560;52.206;21.018;2023-07-31T14:09:06;5.30;;;1.80;;
80247;SDS011;69560;52.206;21.018;2023-07-31T14:11:33;3.00;;;2.00;;
80247;SDS011;69560;52.206;21.018;2023-07-31T14:14:00;5.40;;;2.10;;
80247;SDS011;69560;52.206;21.018;2023-07-31T14:16:28;2.80;;;1.80;;
80247;SDS011;69560;52.206;21.018;2023-07-31T14:18:54;3.10;;;1.60;;
80247;SDS011;69560;52.206;21.018;2023-07-31T14:21:21;5.40;;;1.30;;
80247;SDS011;69560;52.206;21.018;2023-07-31T14:23:47;4.10;;;1.90;;
80247;SDS011;69560;52.206;21.018;2023-07-31T14:26:14;3.70;;;1.80;;
80247;SDS011;69560;52.206;21.018;2023-07-31T14:28:40;9.30;;;2.10;;
80247;SDS011;69560;52.206;21.018;2023-07-31T14:31:07;3.90;;;1.80;;
80247;SDS011;69560;52.206;21.018;2023-07-31T14:33:33;4.70;;;1.70;;
80247;SDS011;69560;52.206;21.018;2023-07-31T14:36:00;7.60;;;1.80;;
80247;SDS011;69560;52.206;21.018;2023-07-31T14:38:27;4.70;;;1.60;;
80247;SDS011;69560;52.206;21.018;2023-07-31T14:40:53;3.50;;;1.60;;
80247;SDS011;69560;52.206;21.018;2023-07-31T14:43:19;9.90;;;1.70;;